Time;durP1;ratioP1;P1;durP2;ratioP2;P2;SDS_P1;SDS_P2;PMS_P1;PMS_P2;Temp;Humidity;BMP_temperature;BMP_pressure;BME280_temperature;BME280_humidity;BME280_pressure;Samples;Min_cycle;Max_cycle;Signal;HPM_P1;HPM_P2
2023/04/28 00:00:28;;;;;;;2.80;2.60;;;19.40;52.20;;;;;;4962739;28;20700;-67
2023/04/28 00:02:54;;;;;;;3.28;2.97;;;19.40;52.20;;;;;;4970411;28;20189;-67
2023/04/28 00:05:22;;;;;;;2.65;2.45;;;19.40;52.20;;;;;;4966070;28;20189;-67
2023/04/28 00:07:48;;;;;;;2.88;2.67;;;19.40;52.20;;;;;;4966711;28;20200;-67
2023/04/28 00:10:14;;;;;;;2.55;2.35;;;19.40;52.20;;;;;;4983776;28;20224;-67
2023/04/28 00:12:40;;;;;;;2.67;2.47;;;19.40;52.20;;;;;;4974705;28;20209;-67
2023/04/28 00:15:06;;;;;;;2.97;2.67;;;19.40;52.20;;;;;;4966254;28;20220;-67
2023/04/28 00:17:32;;;;;;;2.60;2.40;;;19.40;52.20;;;;;;4958476;28;20193;-67
2023/04/28 00:19:58;;;;;;;2.67;2.47;;;19.40;52.20;;;;;;4990506;28;20224;-68
2023/04/28 00:22:23;;;;;;;2.60;2.40;;;19.40;52.20;;;;;;4983367;28;20708;-67
2023/04/28 00:24:49;;;;;;;2.30;2.20;;;19.40;52.20;;;;;;4982400;28;20681;-67
2023/04/28 00:27:15;;;;;;;2.80;2.60;;;19.40;52.20;;;;;;5006775;28;20203;-67
2023/04/28 00:29:41;;;;;;;2.40;2.20;;;19.40;52.20;;;;;;4979948;28;20374;-67
2023/04/28 00:32:06;;;;;;;2.65;2.45;;;19.40;52.20;;;;;;4961405;28;20204;-67
2023/04/28 00:34:33;;;;;;;3.53;2.60;;;19.40;52.20;;;;;;4972851;28;20217;-67
2023/04/28 00:36:59;;;;;;;2.58;2.38;;;19.40;52.20;;;;;;4957950;28;20620;-67
2023/04/28 00:39:26;;;;;;;2.60;2.40;;;19.40;52.20;;;;;;4985221;28;20231;-67
2023/04/28 00:41:52;;;;;;;2.42;2.22;;;19.40;52.30;;;;;;4978732;28;20657;-67
2023/04/28 00:44:18;;;;;;;2.70;2.50;;;19.40;52.30;;;;;;4959751;28;20213;-67
2023/04/28 00:46:43;;;;;;;2.20;2.00;;;19.40;52.30;;;;;;4986479;28;20185;-67
2023/04/28 00:49:10;;;;;;;2.53;2.10;;;19.40;52.30;;;;;;4952692;28;20185;-67
2023/04/28 00:51:36;;;;;;;2.30;2.20;;;19.40;52.30;;;;;;4988638;28;20333;-67
2023/04/28 00:54:01;;;;;;;2.63;2.20;;;19.40;52.40;;;;;;4965357;28;20300;-67
2023/04/28 00:56:30;;;;;;;2.97;2.22;;;19.40;52.30;;;;;;4949834;28;20237;-67
2023/04/28 00:58:57;;;;;;;2.03;1.92;;;19.30;52.20;;;;;;4972633;28;20196;-67
2023/04/28 01:01:23;;;;;;;2.10;2.00;;;19.40;52.40;;;;;;4966237;28;20228;-67
2023/04/28 01:03:48;;;;;;;2.42;2.20;;;19.30;52.30;;;;;;4957443;28;20213;-67
2023/04/28 01:06:17;;;;;;;2.35;2.15;;;19.30;52.30;;;;;;4967276;28;20184;-67
2023/04/28 01:08:49;;;;;;;2.38;2.00;;;19.40;52.40;;;;;;4969035;28;20247;-67
2023/04/28 01:11:16;;;;;;;2.58;2.38;;;19.30;52.30;;;;;;4953074;28;20199;-67
2023/04/28 01:14:11;;;;;;;2.47;2.28;;;19.30;52.30;;;;;;4958558;28;20329;-67
2023/04/28 01:16:40;;;;;;;2.20;2.10;;;19.30;52.90;;;;;;4970078;28;20197;-67
2023/04/28 01:19:11;;;;;;;2.20;2.10;;;19.40;52.40;;;;;;4968418;28;20200;-68
2023/04/28 01:21:38;;;;;;;2.67;2.08;;;19.30;52.40;;;;;;4969288;28;20178;-67
2023/04/28 01:24:17;;;;;;;2.22;2.03;;;19.30;52.40;;;;;;4968392;28;20231;-67
2023/04/28 01:26:44;;;;;;;1.88;1.77;;;19.30;52.40;;;;;;4952103;28;20177;-67
2023/04/28 01:29:10;;;;;;;2.25;2.05;;;19.30;52.40;;;;;;4950587;28;20185;-67
2023/04/28 01:31:35;;;;;;;2.35;1.65;;;19.30;52.40;;;;;;4969243;28;20203;-67
2023/04/28 01:34:01;;;;;;;2.30;2.08;;;19.40;52.50;;;;;;4992566;28;20286;-67
2023/04/28 01:36:27;;;;;;;2.00;1.90;;;19.30;52.40;;;;;;4972830;28;20653;-67
2023/04/28 01:38:53;;;;;;;2.58;1.98;;;19.40;52.50;;;;;;4964823;28;20559;-67
2023/04/28 01:41:20;;;;;;;1.90;1.80;;;19.30;52.40;;;;;;4974477;28;20211;-67
2023/04/28 01:43:45;;;;;;;2.15;1.92;;;19.40;52.50;;;;;;4967999;28;20240;-67
2023/04/28 01:46:11;;;;;;;2.40;2.20;;;19.30;52.40;;;;;;4958967;28;20216;-67
2023/04/28 01:48:37;;;;;;;2.30;2.10;;;19.30;52.50;;;;;;4973922;28;20212;-68
2023/04/28 01:51:03;;;;;;;2.58;2.38;;;19.30;52.50;;;;;;4972516;28;20181;-67
2023/04/28 01:53:29;;;;;;;1.95;1.85;;;19.30;52.50;;;;;;4967324;28;20226;-67
2023/04/28 01:55:57;;;;;;;2.22;2.03;;;19.30;52.50;;;;;;4968089;28;20189;-67
2023/04/28 01:58:23;;;;;;;2.17;1.98;;;19.30;52.50;;;;;;4967649;28;20675;-67
2023/04/28 02:00:49;;;;;;;2.35;2.13;;;19.30;52.50;;;;;;4967376;28;20688;-68
2023/04/28 02:03:16;;;;;;;2.67;2.20;;;19.30;52.50;;;;;;4967363;28;20248;-67
2023/04/28 02:05:42;;;;;;;2.03;1.92;;;19.40;52.60;;;;;;4971000;28;20185;-68
2023/04/28 02:08:08;;;;;;;1.80;1.70;;;19.30;52.50;;;;;;4940417;28;20190;-67
2023/04/28 02:10:33;;;;;;;2.00;1.90;;;19.40;52.50;;;;;;4963880;28;20196;-67
2023/04/28 02:12:59;;;;;;;2.35;2.17;;;19.30;52.60;;;;;;4956172;28;20193;-67
2023/04/28 02:15:25;;;;;;;1.95;1.85;;;19.30;52.50;;;;;;4950392;28;20579;-67
2023/04/28 02:17:52;;;;;;;1.70;1.58;;;19.30;52.50;;;;;;4984806;28;20185;-67
2023/04/28 02:20:18;;;;;;;2.10;1.90;;;19.40;52.60;;;;;;4965740;28;20213;-67
2023/04/28 02:22:44;;;;;;;1.60;1.50;;;19.30;52.50;;;;;;4964157;28;20186;-67
2023/04/28 02:25:10;;;;;;;1.80;1.60;;;19.30;52.50;;;;;;4963816;28;20677;-67
2023/04/28 02:27:37;;;;;;;1.83;1.70;;;19.30;52.60;;;;;;4976328;28;20185;-67
2023/04/28 02:30:07;;;;;;;2.20;2.00;;;19.30;52.50;;;;;;4999713;28;20199;-67
2023/04/28 02:32:32;;;;;;;2.03;1.85;;;19.30;52.50;;;;;;4963887;28;20192;-67
2023/04/28 02:34:58;;;;;;;1.85;1.75;;;19.30;52.60;;;;;;4955808;28;20205;-67
2023/04/28 02:37:25;;;;;;;1.77;1.48;;;19.30;52.60;;;;;;4966137;28;20192;-67
2023/04/28 02:39:51;;;;;;;1.60;1.50;;;19.30;52.60;;;;;;4991322;28;20628;-67
2023/04/28 02:42:17;;;;;;;1.75;1.65;;;19.30;52.60;;;;;;4984372;28;20185;-67
2023/04/28 02:44:43;;;;;;;1.80;1.70;;;19.30;52.60;;;;;;4962644;28;20197;-67
2023/04/28 02:47:08;;;;;;;1.98;1.83;;;19.30;52.60;;;;;;4971798;28;20656;-67
2023/04/28 02:49:34;;;;;;;1.90;1.80;;;19.30;52.60;;;;;;4967177;28;20184;-67
2023/04/28 02:52:00;;;;;;;1.90;1.80;;;19.30;52.60;;;;;;4968155;28;20393;-67
2023/04/28 02:54:26;;;;;;;1.70;1.60;;;19.30;52.60;;;;;;4955293;28;20225;-67
2023/04/28 02:56:54;;;;;;;1.90;1.75;;;19.30;52.60;;;;;;4938992;28;20186;-67
2023/04/28 02:59:22;;;;;;;2.00;1.90;;;19.30;52.60;;;;;;4945370;28;20183;-67
2023/04/28 03:01:49;;;;;;;2.30;2.10;;;19.30;52.60;;;;;;4962084;28;20214;-67
2023/04/28 03:04:15;;;;;;;1.83;1.73;;;19.30;52.60;;;;;;4947182;28;20203;-67
2023/04/28 03:06:41;;;;;;;2.25;2.10;;;19.30;52.60;;;;;;4983879;28;20291;-67
2023/04/28 03:09:08;;;;;;;1.80;1.70;;;19.30;52.60;;;;;;4951029;28;20668;-67
2023/04/28 03:11:34;;;;;;;1.67;1.58;;;19.30;52.60;;;;;;4939511;28;20190;-67
2023/04/28 03:14:00;;;;;;;1.80;1.70;;;19.30;52.60;;;;;;4955377;28;20196;-67
2023/04/28 03:16:26;;;;;;;2.15;1.67;;;19.30;52.70;;;;;;4962894;28;20196;-67
2023/04/28 03:18:52;;;;;;;2.20;2.00;;;19.30;52.60;;;;;;4973039;28;20201;-68
2023/04/28 03:21:18;;;;;;;2.33;1.58;;;19.30;52.60;;;;;;4943269;28;20220;-67
2023/04/28 03:23:44;;;;;;;1.83;1.73;;;19.30;52.60;;;;;;4958962;28;20203;-67
2023/04/28 03:26:10;;;;;;;2.05;1.90;;;19.30;52.60;;;;;;4983568;28;20245;-67
2023/04/28 03:28:36;;;;;;;1.98;1.88;;;19.30;52.60;;;;;;4980181;28;20222;-67
2023/04/28 03:31:02;;;;;;;1.58;1.48;;;19.30;52.60;;;;;;4972454;28;20182;-67
2023/04/28 03:33:28;;;;;;;1.75;1.65;;;19.30;52.60;;;;;;4965781;28;20224;-67
2023/04/28 03:35:54;;;;;;;1.80;1.70;;;19.30;52.60;;;;;;4959254;28;20210;-67
2023/04/28 03:38:21;;;;;;;1.85;1.75;;;19.30;52.70;;;;;;4991290;28;20270;-67
2023/04/28 03:40:47;;;;;;;1.98;1.88;;;19.30;52.70;;;;;;4966820;28;20237;-67
2023/04/28 03:43:13;;;;;;;1.83;1.73;;;19.30;52.70;;;;;;4976270;28;20637;-67
2023/04/28 03:46:00;;;;;;;1.80;1.70;;;19.30;52.70;;;;;;4964322;28;20281;-67
2023/04/28 03:48:25;;;;;;;1.50;1.40;;;19.30;52.70;;;;;;4950938;28;20199;-67
2023/04/28 03:50:51;;;;;;;1.65;1.55;;;19.30;52.70;;;;;;4966772;28;20190;-67
2023/04/28 03:53:17;;;;;;;1.63;1.52;;;19.30;52.70;;;;;;4974773;28;20217;-67
2023/04/28 03:55:43;;;;;;;1.50;1.40;;;19.30;52.80;;;;;;4958661;28;20189;-67
2023/04/28 03:58:09;;;;;;;1.98;1.70;;;19.30;52.70;;;;;;4958988;28;20182;-67
2023/04/28 04:00:35;;;;;;;1.73;1.63;;;19.30;53.40;;;;;;4942803;28;20205;-67
2023/04/28 04:03:01;;;;;;;1.85;1.75;;;19.30;52.70;;;;;;4958445;28;20182;-67
2023/04/28 04:05:26;;;;;;;1.75;1.65;;;19.30;52.80;;;;;;4942346;28;20192;-67
2023/04/28 04:07:52;;;;;;;1.92;1.80;;;19.30;52.80;;;;;;4958500;28;20570;-67
2023/04/28 04:10:18;;;;;;;1.60;1.50;;;19.30;52.80;;;;;;4958445;28;20216;-67
2023/04/28 04:12:44;;;;;;;1.50;1.40;;;19.30;52.80;;;;;;4958488;28;20190;-67
2023/04/28 04:15:10;;;;;;;1.67;1.58;;;19.30;52.80;;;;;;4958512;28;20213;-67
2023/04/28 04:17:37;;;;;;;1.70;1.60;;;19.30;52.80;;;;;;4958190;28;20241;-67
2023/04/28 04:20:04;;;;;;;1.70;1.60;;;19.30;52.80;;;;;;4958629;28;20218;-67
2023/04/28 04:22:30;;;;;;;2.00;1.80;;;19.30;52.80;;;;;;4958072;28;20221;-67
2023/04/28 04:24:56;;;;;;;1.80;1.70;;;19.30;52.80;;;;;;4941762;28;20280;-67
2023/04/28 04:27:21;;;;;;;1.70;1.60;;;19.20;52.70;;;;;;4958318;28;20178;-68
2023/04/28 04:29:47;;;;;;;1.63;1.52;;;19.30;52.80;;;;;;4958479;28;20209;-67
2023/04/28 04:32:14;;;;;;;1.55;1.45;;;19.30;52.80;;;;;;4958040;28;20587;-67
2023/04/28 04:34:41;;;;;;;1.70;1.60;;;19.30;52.80;;;;;;4958185;28;20205;-67
2023/04/28 04:37:08;;;;;;;1.73;1.60;;;19.20;52.70;;;;;;4971075;28;20198;-67
2023/04/28 04:39:39;;;;;;;1.38;1.30;;;19.30;52.90;;;;;;4973751;28;20205;-69
2023/04/28 04:42:05;;;;;;;1.83;1.73;;;19.30;52.80;;;;;;4973927;28;20201;-67
2023/04/28 04:44:38;;;;;;;1.80;1.70;;;19.30;52.80;;;;;;4957584;28;20201;-68
2023/04/28 04:47:07;;;;;;;1.20;1.20;;;19.30;52.90;;;;;;4958125;28;20177;-68
2023/04/28 04:49:34;;;;;;;1.25;1.20;;;19.30;52.90;;;;;;4957904;28;20198;-68
2023/04/28 04:52:01;;;;;;;1.63;1.52;;;19.30;52.90;;;;;;4963971;28;20196;-67
2023/04/28 04:54:29;;;;;;;1.58;1.48;;;19.20;52.80;;;;;;4958865;28;20227;-67
2023/04/28 04:56:55;;;;;;;1.52;1.42;;;19.20;52.80;;;;;;4957593;28;20185;-67
2023/04/28 04:59:35;;;;;;;1.63;1.52;;;19.30;52.90;;;;;;4943351;28;20220;-68
2023/04/28 05:02:07;;;;;;;1.80;1.70;;;19.20;52.80;;;;;;4973746;28;20236;-68
2023/04/28 05:04:33;;;;;;;1.85;1.70;;;19.20;52.80;;;;;;4957048;28;20210;-68
2023/04/28 05:06:59;;;;;;;2.05;1.58;;;19.30;53.00;;;;;;4957745;28;20186;-68
2023/04/28 05:09:24;;;;;;;1.80;1.60;;;19.20;52.90;;;;;;4941223;28;20185;-68
2023/04/28 05:11:50;;;;;;;1.60;1.50;;;19.20;53.00;;;;;;4965162;28;20265;-69
2023/04/28 05:14:16;;;;;;;1.60;1.50;;;19.30;53.00;;;;;;4965003;28;20206;-68
2023/04/28 05:16:42;;;;;;;1.40;1.30;;;19.30;53.00;;;;;;4960320;28;20189;-67
2023/04/28 05:19:11;;;;;;;1.55;1.45;;;19.20;53.60;;;;;;4992313;28;20329;-68
2023/04/28 05:21:37;;;;;;;1.70;1.60;;;19.20;53.00;;;;;;4976497;28;20742;-68
2023/04/28 05:24:02;;;;;;;1.95;1.77;;;19.20;53.00;;;;;;4975985;28;20204;-68
2023/04/28 05:26:28;;;;;;;1.77;1.67;;;19.20;53.00;;;;;;4959861;28;20321;-68
2023/04/28 05:28:58;;;;;;;1.60;1.50;;;19.20;53.00;;;;;;4961097;28;20173;-68
2023/04/28 05:31:24;;;;;;;1.70;1.60;;;19.20;53.00;;;;;;4963963;28;20212;-68
2023/04/28 05:33:52;;;;;;;1.60;1.50;;;19.20;53.00;;;;;;4970455;28;20217;-68
2023/04/28 05:36:17;;;;;;;1.88;1.50;;;19.20;53.00;;;;;;4980315;28;20230;-68
2023/04/28 05:38:45;;;;;;;1.63;1.52;;;19.20;53.00;;;;;;4968764;28;20272;-68
2023/04/28 05:41:11;;;;;;;2.63;1.50;;;19.20;53.00;;;;;;4960868;28;20228;-68
2023/04/28 05:43:38;;;;;;;2.03;1.83;;;19.30;53.10;;;;;;4964289;28;20217;-68
2023/04/28 05:46:04;;;;;;;1.70;1.60;;;19.20;53.10;;;;;;4964701;28;20193;-69
2023/04/28 05:48:30;;;;;;;1.80;1.70;;;19.30;53.20;;;;;;4956121;28;20193;-68
2023/04/28 05:50:56;;;;;;;1.98;1.48;;;19.20;53.10;;;;;;4964286;28;20185;-68
2023/04/28 05:53:22;;;;;;;1.73;1.63;;;19.20;53.70;;;;;;4967306;28;20220;-67
2023/04/28 05:55:49;;;;;;;1.48;1.38;;;19.20;53.10;;;;;;4975727;28;20743;-67
2023/04/28 05:58:15;;;;;;;1.50;1.40;;;19.30;53.20;;;;;;4967988;28;20280;-68
2023/04/28 06:00:41;;;;;;;1.60;1.50;;;19.20;53.20;;;;;;4952156;28;20220;-68
2023/04/28 06:03:09;;;;;;;1.52;1.42;;;19.20;53.20;;;;;;4975504;28;20177;-68
2023/04/28 06:05:36;;;;;;;1.77;1.67;;;19.20;53.20;;;;;;4975665;28;20216;-68
2023/04/28 06:08:02;;;;;;;1.60;1.50;;;19.20;53.80;;;;;;4999919;28;20197;-68
2023/04/28 06:10:30;;;;;;;1.60;1.50;;;19.20;53.30;;;;;;4966446;28;20201;-68
2023/04/28 06:12:56;;;;;;;1.50;1.40;;;19.20;53.20;;;;;;5001589;28;20259;-68
2023/04/28 06:15:21;;;;;;;1.65;1.30;;;19.20;53.30;;;;;;4967209;28;20213;-67
2023/04/28 06:17:47;;;;;;;2.00;1.80;;;19.20;53.90;;;;;;4963691;28;20221;-69
2023/04/28 06:20:15;;;;;;;1.42;1.33;;;19.30;53.40;;;;;;4940168;28;20213;-67
2023/04/28 06:22:41;;;;;;;1.55;1.45;;;19.20;53.30;;;;;;4963991;28;20194;-68
2023/04/28 06:25:08;;;;;;;1.60;1.50;;;19.20;53.40;;;;;;4970224;28;20207;-67
2023/04/28 06:27:40;;;;;;;1.52;1.42;;;19.20;53.30;;;;;;4952230;28;20185;-68
2023/04/28 06:30:06;;;;;;;1.40;1.30;;;19.20;53.30;;;;;;4991279;28;20185;-68
2023/04/28 06:32:32;;;;;;;1.20;1.20;;;19.20;53.30;;;;;;4957478;28;20275;-67
2023/04/28 06:34:58;;;;;;;1.55;1.40;;;19.20;53.40;;;;;;4968826;28;20296;-68
2023/04/28 06:37:25;;;;;;;1.65;1.55;;;19.20;53.40;;;;;;4975260;28;20707;-67
2023/04/28 06:39:50;;;;;;;1.50;1.40;;;19.20;53.40;;;;;;5003734;28;20300;-68
2023/04/28 06:42:17;;;;;;;2.17;1.50;;;19.30;53.40;;;;;;4971596;28;20193;-68
2023/04/28 06:44:50;;;;;;;1.30;1.20;;;19.30;53.50;;;;;;4971489;28;20212;-68
2023/04/28 06:47:16;;;;;;;1.45;1.35;;;19.20;53.40;;;;;;4963497;28;20186;-68
2023/04/28 06:49:43;;;;;;;1.55;1.42;;;19.20;53.50;;;;;;4983654;28;20197;-69
2023/04/28 06:52:09;;;;;;;1.10;1.10;;;19.20;53.50;;;;;;4966961;28;20200;-68
2023/04/28 06:54:37;;;;;;;1.50;1.40;;;19.20;53.50;;;;;;5007276;28;20220;-68
2023/04/28 06:57:07;;;;;;;1.77;1.25;;;19.20;53.50;;;;;;4951935;28;20185;-68
2023/04/28 06:59:33;;;;;;;1.45;1.20;;;19.20;53.50;;;;;;4966820;28;20223;-67
2023/04/28 07:01:59;;;;;;;1.50;1.40;;;19.20;53.60;;;;;;4953873;28;20189;-68
2023/04/28 07:04:26;;;;;;;1.63;1.52;;;19.20;53.60;;;;;;5003697;28;20209;-67
2023/04/28 07:06:52;;;;;;;1.40;1.30;;;19.20;53.60;;;;;;4967451;28;20196;-68
2023/04/28 07:09:18;;;;;;;1.30;1.20;;;19.20;53.60;;;;;;4952071;28;20280;-68
2023/04/28 07:11:44;;;;;;;1.02;1.02;;;19.20;54.20;;;;;;4950041;28;20228;-68
2023/04/28 07:14:10;;;;;;;1.40;1.30;;;19.20;53.60;;;;;;4973562;28;20220;-68
2023/04/28 07:16:36;;;;;;;1.38;1.27;;;19.20;53.60;;;;;;4973165;28;20193;-67
2023/04/28 07:19:02;;;;;;;1.30;1.20;;;19.20;53.60;;;;;;4968946;28;20193;-66
2023/04/28 07:21:27;;;;;;;1.40;1.30;;;19.20;53.60;;;;;;4944255;28;20217;-67
2023/04/28 07:23:56;;;;;;;1.13;1.02;;;19.20;53.60;;;;;;4947054;28;20212;-68
2023/04/28 07:26:23;;;;;;;0.93;0.93;;;19.20;53.60;;;;;;4955447;28;20676;-68
2023/04/28 07:28:48;;;;;;;1.13;1.13;;;19.20;53.60;;;;;;4958537;28;20586;-67
2023/04/28 07:31:14;;;;;;;1.45;1.35;;;19.20;53.60;;;;;;4960245;28;20186;-68
2023/04/28 07:33:40;;;;;;;1.42;1.33;;;19.20;53.70;;;;;;4965195;28;20213;-68
2023/04/28 07:36:06;;;;;;;1.33;1.23;;;19.20;53.70;;;;;;4974381;28;20200;-68
2023/04/28 07:38:35;;;;;;;0.82;0.82;;;19.20;53.70;;;;;;4966533;28;20201;-68
2023/04/28 07:41:05;;;;;;;1.10;1.00;;;19.20;53.70;;;;;;4966590;28;20320;-68
2023/04/28 07:43:30;;;;;;;1.35;1.20;;;19.20;53.80;;;;;;4966266;28;20658;-67
2023/04/28 07:45:56;;;;;;;1.00;1.00;;;19.20;53.80;;;;;;4966564;28;20267;-68
2023/04/28 07:48:22;;;;;;;1.05;1.02;;;19.20;53.80;;;;;;4966761;28;20218;-66
2023/04/28 07:50:48;;;;;;;1.38;1.27;;;19.20;53.70;;;;;;4974539;28;20259;-68
2023/04/28 07:53:13;;;;;;;1.30;1.20;;;19.20;53.80;;;;;;4985274;28;20300;-67
2023/04/28 07:55:43;;;;;;;1.10;1.10;;;19.20;53.80;;;;;;4970858;28;20197;-68
2023/04/28 07:58:09;;;;;;;1.40;1.30;;;19.20;53.80;;;;;;4969223;28;20224;-67
2023/04/28 08:00:35;;;;;;;1.63;1.52;;;19.20;53.80;;;;;;5008078;28;20279;-68
2023/04/28 08:03:00;;;;;;;1.42;1.33;;;19.20;53.80;;;;;;4966457;28;20201;-67
2023/04/28 08:05:26;;;;;;;1.20;1.10;;;19.20;53.80;;;;;;4974543;28;20243;-68
2023/04/28 08:07:52;;;;;;;1.23;1.13;;;19.20;53.80;;;;;;4979246;28;20671;-68
2023/04/28 08:10:19;;;;;;;1.25;1.13;;;19.30;53.90;;;;;;4969747;28;20189;-68
2023/04/28 08:12:46;;;;;;;1.30;1.20;;;19.20;53.80;;;;;;4976150;28;20359;-68
2023/04/28 08:15:12;;;;;;;1.10;1.10;;;19.20;53.80;;;;;;4978944;28;20218;-68
2023/04/28 08:17:38;;;;;;;1.00;1.00;;;19.20;53.80;;;;;;4973899;28;20181;-68
2023/04/28 08:20:06;;;;;;;1.05;1.00;;;19.20;53.80;;;;;;5001993;28;20231;-68
2023/04/28 08:22:32;;;;;;;1.17;1.17;;;19.20;53.80;;;;;;5001589;28;20293;-67
2023/04/28 08:24:58;;;;;;;1.33;1.20;;;19.20;53.90;;;;;;4954099;28;20220;-68
2023/04/28 08:27:24;;;;;;;1.27;1.10;;;19.20;54.00;;;;;;4962425;28;20190;-68
2023/04/28 08:29:50;;;;;;;1.05;1.00;;;19.20;53.90;;;;;;4994324;28;20220;-68
2023/04/28 08:32:17;;;;;;;1.27;1.00;;;19.20;53.90;;;;;;4971002;28;20190;-68
2023/04/28 08:34:42;;;;;;;1.10;1.00;;;19.30;54.00;;;;;;4973771;28;20212;-67
2023/04/28 08:37:08;;;;;;;1.13;1.00;;;19.20;54.00;;;;;;4971649;28;20572;-68
2023/04/28 08:39:34;;;;;;;1.48;1.38;;;19.20;54.00;;;;;;4969351;28;20225;-67
2023/04/28 08:42:03;;;;;;;1.00;1.00;;;19.20;54.00;;;;;;4994711;28;20280;-68
2023/04/28 08:44:39;;;;;;;1.30;1.20;;;19.20;54.00;;;;;;4986139;28;20205;-68
2023/04/28 08:47:13;;;;;;;1.20;1.10;;;19.20;54.10;;;;;;4977305;28;20188;-68
2023/04/28 08:49:40;;;;;;;1.20;1.10;;;19.20;54.20;;;;;;4945550;28;20189;-69
2023/04/28 08:52:16;;;;;;;1.00;1.00;;;19.20;54.20;;;;;;4977198;28;20181;-68
2023/04/28 08:54:43;;;;;;;1.08;1.00;;;19.20;54.00;;;;;;4951030;28;20228;-69
2023/04/28 08:57:10;;;;;;;0.98;0.98;;;19.20;54.00;;;;;;4965813;28;20253;-69
2023/04/28 08:59:40;;;;;;;1.35;1.10;;;19.20;54.10;;;;;;4966419;28;20209;-68
2023/04/28 09:02:09;;;;;;;1.50;1.10;;;19.20;54.00;;;;;;4968748;28;20189;-68
2023/04/28 09:04:36;;;;;;;1.00;1.00;;;19.20;54.20;;;;;;4968001;28;20284;-67
2023/04/28 09:07:01;;;;;;;0.77;0.77;;;19.20;54.20;;;;;;4965400;28;20220;-68
2023/04/28 09:09:29;;;;;;;1.67;1.05;;;19.20;54.20;;;;;;4972947;28;20185;-68
2023/04/28 09:12:01;;;;;;;1.00;1.00;;;19.20;54.20;;;;;;4973007;28;20235;-67
2023/04/28 09:14:29;;;;;;;0.95;0.95;;;19.20;54.20;;;;;;4972660;28;20209;-67
2023/04/28 09:16:55;;;;;;;0.80;0.80;;;19.20;54.20;;;;;;4976305;28;20280;-68
2023/04/28 09:19:22;;;;;;;0.90;0.90;;;19.20;54.20;;;;;;4994312;28;20649;-69
2023/04/28 09:21:53;;;;;;;1.17;1.10;;;19.30;54.80;;;;;;4960512;28;20231;-68
2023/04/28 09:24:31;;;;;;;0.88;0.88;;;19.30;54.30;;;;;;4970163;28;20209;-68
2023/04/28 09:27:03;;;;;;;0.80;0.80;;;19.30;54.40;;;;;;4993344;28;20184;-67
2023/04/28 09:29:31;;;;;;;1.08;1.00;;;19.20;54.30;;;;;;4976566;28;20674;-68
2023/04/28 09:32:17;;;;;;;1.17;1.08;;;19.30;54.40;;;;;;4964936;28;20252;-67
2023/04/28 09:34:46;;;;;;;1.20;1.10;;;19.30;54.30;;;;;;4958373;28;20204;-68
2023/04/28 09:37:19;;;;;;;0.82;0.82;;;19.30;54.40;;;;;;4962806;28;20189;-69
2023/04/28 09:39:49;;;;;;;0.90;0.90;;;19.20;54.30;;;;;;4956741;28;20228;-68
2023/04/28 09:42:41;;;;;;;0.68;0.68;;;19.20;54.30;;;;;;4974398;28;20190;-68
2023/04/28 09:45:15;;;;;;;0.88;0.88;;;19.20;54.40;;;;;;4956826;28;20582;-69
2023/04/28 09:47:45;;;;;;;1.10;1.00;;;19.20;54.40;;;;;;4956741;28;20204;-68
2023/04/28 09:50:15;;;;;;;0.95;0.95;;;19.30;54.50;;;;;;4940999;28;20200;-68
2023/04/28 09:52:44;;;;;;;1.27;1.00;;;19.20;54.40;;;;;;4964509;28;20197;-67
2023/04/28 09:55:11;;;;;;;0.90;0.90;;;19.20;54.40;;;;;;4956492;28;20221;-68
2023/04/28 09:57:38;;;;;;;0.95;0.95;;;19.30;54.60;;;;;;4964771;28;20194;-67
2023/04/28 10:00:07;;;;;;;1.02;0.93;;;19.20;54.40;;;;;;4956554;28;20301;-68
2023/04/28 10:02:36;;;;;;;0.70;0.70;;;19.30;54.60;;;;;;4940291;28;20196;-68
2023/04/28 10:05:02;;;;;;;0.80;0.80;;;19.30;54.50;;;;;;4945661;28;20217;-67
2023/04/28 10:07:33;;;;;;;2.38;0.93;;;19.30;54.50;;;;;;4985200;28;20193;-67
2023/04/28 10:10:00;;;;;;;0.70;0.70;;;19.30;54.50;;;;;;4956643;28;20193;-67
2023/04/28 10:12:27;;;;;;;1.77;0.95;;;19.30;54.50;;;;;;4963641;28;20217;-68
2023/04/28 10:14:53;;;;;;;0.80;0.80;;;19.30;54.70;;;;;;4957018;28;20221;-67
2023/04/28 10:17:21;;;;;;;0.57;0.57;;;19.30;54.70;;;;;;4956179;28;20629;-67
2023/04/28 10:19:52;;;;;;;0.57;0.57;;;19.30;54.70;;;;;;4964789;28;20233;-67
2023/04/28 10:22:31;;;;;;;0.95;0.90;;;19.30;54.90;;;;;;4962405;28;20284;-67
2023/04/28 10:25:13;;;;;;;0.68;0.68;;;19.30;54.70;;;;;;4982999;28;20288;-66
2023/04/28 10:27:47;;;;;;;1.05;0.82;;;19.30;54.90;;;;;;4964014;28;20201;-67
2023/04/28 10:30:16;;;;;;;0.90;0.90;;;19.30;54.90;;;;;;4957158;28;20255;-68
2023/04/28 10:32:44;;;;;;;1.02;0.70;;;19.30;54.80;;;;;;4956049;28;20196;-68
2023/04/28 10:35:29;;;;;;;1.45;0.75;;;19.30;54.80;;;;;;4956824;28;20210;-68
2023/04/28 10:38:08;;;;;;;1.00;0.90;;;19.30;54.80;;;;;;4947795;28;20235;-68
2023/04/28 10:40:45;;;;;;;1.10;1.00;;;19.30;54.80;;;;;;4952666;28;20267;-69
2023/04/28 10:43:33;;;;;;;0.70;0.70;;;19.30;54.80;;;;;;4955993;28;20208;-68
2023/04/28 10:46:01;;;;;;;0.80;0.80;;;19.30;54.90;;;;;;4939231;28;20190;-69
2023/04/28 10:48:32;;;;;;;0.90;0.90;;;19.30;55.00;;;;;;4973114;28;20196;-69
2023/04/28 10:51:06;;;;;;;1.02;0.90;;;19.40;55.30;;;;;;4955753;28;20229;-68
2023/04/28 10:53:41;;;;;;;0.80;0.80;;;19.40;55.30;;;;;;4972852;28;20224;-68
2023/04/28 10:56:07;;;;;;;1.15;0.80;;;19.40;55.30;;;;;;4959872;28;20188;-69
2023/04/28 10:58:36;;;;;;;0.68;0.68;;;19.40;55.20;;;;;;4959553;28;20197;-68
2023/04/28 11:01:33;;;;;;;0.80;0.77;;;19.40;55.20;;;;;;4968475;28;20210;-69
2023/04/28 11:04:12;;;;;;;0.88;0.88;;;19.40;55.20;;;;;;4946414;28;20311;-68
2023/04/28 11:06:43;;;;;;;0.95;0.90;;;19.40;55.40;;;;;;4955374;28;20233;-69
2023/04/28 11:09:32;;;;;;;0.88;0.88;;;19.40;55.30;;;;;;4955699;28;20329;-69
2023/04/28 11:12:09;;;;;;;1.00;0.82;;;19.40;55.50;;;;;;4961114;28;20248;-69
2023/04/28 11:14:39;;;;;;;1.23;0.88;;;19.40;55.50;;;;;;4939656;28;20220;-69
2023/04/28 11:17:12;;;;;;;0.80;0.80;;;19.30;55.40;;;;;;4939534;28;20190;-69
2023/04/28 11:19:47;;;;;;;1.17;0.60;;;19.30;55.80;;;;;;4968465;28;20198;-69
2023/04/28 11:22:22;;;;;;;0.95;0.60;;;19.30;55.40;;;;;;4981326;28;20190;-70
2023/04/28 11:25:00;;;;;;;0.88;0.88;;;19.30;55.40;;;;;;4939442;28;20213;-69
2023/04/28 11:27:27;;;;;;;0.75;0.75;;;19.30;55.40;;;;;;4971504;28;20198;-68
2023/04/28 11:29:54;;;;;;;0.60;0.60;;;19.40;55.50;;;;;;4955305;28;20209;-69
2023/04/28 11:32:34;;;;;;;0.80;0.80;;;19.40;55.70;;;;;;4939466;28;20232;-68
2023/04/28 11:35:00;;;;;;;1.58;0.88;;;19.40;55.70;;;;;;4972650;28;20217;-68
2023/04/28 11:37:26;;;;;;;1.23;1.00;;;19.40;56.00;;;;;;4959118;28;20201;-69
2023/04/28 11:39:52;;;;;;;2.10;0.82;;;19.40;55.50;;;;;;4950921;28;20228;-69
2023/04/28 11:42:18;;;;;;;0.90;0.90;;;19.40;55.70;;;;;;4943311;28;20312;-69
2023/04/28 11:44:52;;;;;;;0.73;0.73;;;19.40;55.90;;;;;;4958757;28;20328;-69
2023/04/28 11:47:30;;;;;;;1.58;0.80;;;19.40;56.10;;;;;;4976311;28;20272;-69
2023/04/28 11:49:56;;;;;;;1.05;0.95;;;19.40;56.00;;;;;;4968864;28;20211;-69
2023/04/28 11:52:22;;;;;;;0.90;0.90;;;19.40;56.00;;;;;;4964931;28;20193;-69
2023/04/28 11:54:58;;;;;;;0.95;0.90;;;19.40;56.20;;;;;;4958645;28;20574;-69
2023/04/28 11:57:25;;;;;;;1.60;0.80;;;19.40;56.20;;;;;;4958809;28;20192;-69
2023/04/28 11:59:51;;;;;;;0.73;0.70;;;19.40;56.10;;;;;;4958844;28;20221;-69
2023/04/28 12:02:28;;;;;;;1.42;0.70;;;19.40;56.10;;;;;;4984071;28;20197;-69
2023/04/28 12:04:54;;;;;;;0.70;0.70;;;19.40;56.40;;;;;;4968149;28;20256;-69
2023/04/28 12:07:20;;;;;;;0.77;0.75;;;19.40;56.20;;;;;;4964670;28;20276;-69
2023/04/28 12:10:10;;;;;;;3.15;0.80;;;19.40;56.30;;;;;;4975829;28;20190;-68
2023/04/28 12:12:35;;;;;;;1.20;0.70;;;19.40;56.40;;;;;;4984229;28;20182;-69
2023/04/28 12:15:07;;;;;;;1.20;0.90;;;19.40;56.30;;;;;;4966071;28;20667;-68
2023/04/28 12:17:42;;;;;;;3.08;0.80;;;19.40;56.50;;;;;;4958550;28;20220;-69
2023/04/28 12:20:11;;;;;;;2.80;0.77;;;19.40;56.60;;;;;;4962096;28;20212;-68
2023/04/28 12:22:45;;;;;;;0.70;0.70;;;19.40;56.40;;;;;;4962664;28;20538;-69
2023/04/28 12:25:15;;;;;;;1.15;0.90;;;19.40;56.60;;;;;;4986938;28;20240;-69
2023/04/28 12:28:01;;;;;;;2.10;0.93;;;19.40;56.70;;;;;;4979125;28;20309;-68
2023/04/28 12:30:29;;;;;;;0.70;0.70;;;19.40;56.80;;;;;;4960955;28;20292;-70
2023/04/28 12:32:55;;;;;;;0.70;0.70;;;19.40;56.60;;;;;;4967619;28;20217;-69
2023/04/28 12:35:26;;;;;;;1.92;0.77;;;19.40;56.50;;;;;;4969725;28;20343;-69
2023/04/28 12:37:54;;;;;;;1.20;0.60;;;19.40;56.60;;;;;;5000533;28;20239;-68
2023/04/28 12:40:20;;;;;;;0.60;0.60;;;19.40;56.90;;;;;;4949871;28;20664;-69
2023/04/28 12:42:46;;;;;;;1.10;0.70;;;19.40;57.00;;;;;;4965969;28;20212;-68
2023/04/28 12:45:12;;;;;;;0.70;0.70;;;19.40;56.80;;;;;;4957727;28;20587;-68
2023/04/28 12:47:38;;;;;;;1.05;0.77;;;19.40;56.50;;;;;;4957981;28;20201;-68
2023/04/28 12:50:05;;;;;;;0.82;0.70;;;19.40;56.60;;;;;;4944566;28;20598;-69
2023/04/28 12:52:32;;;;;;;1.20;0.90;;;19.40;56.70;;;;;;4969097;28;20192;-69